Main page
METAR-TAF:

METAR-TAF

Airports :

Dubai, United Arab Emirates

Dubai International Airport

latitude: 25-15-10N, longitude: 055-21-52E, elevation: 8 m

Current weather observation

The report was made 58 minutes ago, at 04:00 UTC
Wind 6 kt from the South/Southeast
Temperature 38°C
Humidity 29%
Pressure 998 hPa
Visibility: 7000 m

METAR: OMDB 220400Z 16006KT 7000 NSC 38/17 Q0998 NOSIG

Time: 08:58 (04:58 UTC)

Forecast

The report was made 5 hours and 58 minutes ago, at 23:00 UTC
Forecast valid from 22 at 00 UTC to 23 at 06 UTC
Wind 5 kt from the East/Southeast
Visibility: 8000 m
Becoming
from 22 at 03 UTC to 22 at 05 UTC
Wind 10 kt from the South
Becoming
from 22 at 08 UTC to 22 at 10 UTC
Wind 12 kt from the North
Becoming
from 22 at 15 UTC to 22 at 17 UTC
Wind 5 kt from the Northeast

TAF: OMDB 212300Z 2200/2306 11005KT 8000 NSC BECMG 2203/2205 17010KT BECMG 2208/2210 35012KT BECMG 2215/2217 05005KT

Weather observations and forecasts of more than 4000 airports (METAR and TAF reports).

The available stations are represented by yellow and red dots on the map.

Hover mouse over dot to see the name of the station.

Then click to see weather observations and forecasts.

To change the map : click on the green buttons with a black cross to zoom in, on the green button with a dash to zoom out, or on the green arrows for adjacent maps.


METAR-TAF: